createdAt,value
2023-04-16T00:01:51.303Z,95.40
2023-04-16T00:04:18.234Z,95.40
2023-04-16T00:06:45.152Z,95.40
2023-04-16T00:09:12.063Z,95.30
2023-04-16T00:11:38.959Z,95.20
2023-04-16T00:14:05.918Z,95.40
2023-04-16T00:16:33.052Z,95.40
2023-04-16T00:19:00.180Z,95.40
2023-04-16T00:21:27.085Z,95.40
2023-04-16T00:23:53.949Z,95.60
2023-04-16T00:26:20.903Z,95.40
2023-04-16T00:28:47.972Z,95.30
2023-04-16T00:31:15.029Z,95.50
2023-04-16T00:33:41.922Z,95.70
2023-04-16T00:36:09.413Z,95.70
2023-04-16T00:38:36.269Z,95.80
2023-04-16T00:41:03.179Z,95.50
2023-04-16T00:43:31.843Z,95.70
2023-04-16T00:45:58.902Z,95.60
2023-04-16T00:48:28.036Z,95.50
2023-04-16T00:50:55.716Z,95.50
2023-04-16T00:53:22.642Z,95.70
2023-04-16T00:55:49.537Z,96.00
2023-04-16T00:58:16.576Z,95.80
2023-04-16T01:00:43.450Z,95.60
2023-04-16T01:03:10.848Z,95.60
2023-04-16T01:05:37.841Z,96.00
2023-04-16T01:08:04.935Z,96.20
2023-04-16T01:10:32.077Z,96.00
2023-04-16T01:12:58.972Z,95.90
2023-04-16T01:15:25.873Z,95.90
2023-04-16T01:17:52.861Z,95.80
2023-04-16T01:20:19.770Z,95.90
2023-04-16T01:22:46.658Z,95.90
2023-04-16T01:25:14.554Z,96.00
2023-04-16T01:27:41.560Z,96.00
2023-04-16T01:30:08.660Z,95.70
2023-04-16T01:32:49.375Z,95.60
2023-04-16T01:35:18.256Z,95.80
2023-04-16T01:37:45.136Z,95.70
2023-04-16T01:40:11.990Z,95.80
2023-04-16T01:42:38.960Z,95.90
2023-04-16T01:45:06.353Z,96.00
2023-04-16T01:47:33.264Z,95.90
2023-04-16T01:50:00.330Z,96.00
2023-04-16T01:52:27.177Z,95.90
2023-04-16T01:54:54.070Z,95.70
2023-04-16T01:57:20.941Z,95.90
2023-04-16T01:59:47.856Z,95.80
2023-04-16T02:02:15.392Z,96.00
2023-04-16T02:04:43.197Z,95.90
2023-04-16T02:07:10.094Z,95.80
2023-04-16T02:09:37.469Z,95.90
2023-04-16T02:12:06.696Z,96.00
2023-04-16T02:14:34.023Z,96.10
2023-04-16T02:17:00.971Z,95.90
2023-04-16T02:19:37.191Z,96.00
2023-04-16T02:22:04.557Z,96.20
2023-04-16T02:24:31.505Z,96.30
2023-04-16T02:27:00.000Z,95.90
2023-04-16T02:29:26.909Z,95.90
2023-04-16T02:32:01.021Z,96.00
2023-04-16T02:34:29.488Z,96.00
2023-04-16T02:36:58.515Z,95.80
2023-04-16T02:39:25.579Z,95.90
2023-04-16T02:41:53.532Z,96.00
2023-04-16T02:44:21.264Z,96.10
2023-04-16T02:46:48.280Z,96.00
2023-04-16T02:49:15.129Z,96.30
2023-04-16T02:51:42.384Z,96.20
2023-04-16T02:54:09.323Z,96.40
2023-04-16T02:56:36.313Z,96.50
2023-04-16T02:59:03.273Z,96.40
2023-04-16T03:01:30.429Z,96.40
2023-04-16T03:03:57.694Z,96.40
2023-04-16T03:06:24.649Z,96.30
2023-04-16T03:08:51.548Z,96.60
2023-04-16T03:11:18.745Z,96.50
2023-04-16T03:13:45.778Z,96.40
2023-04-16T03:16:12.805Z,96.10
2023-04-16T03:18:39.744Z,96.40
2023-04-16T03:21:06.599Z,96.50
2023-04-16T03:23:33.764Z,96.40
2023-04-16T03:26:00.707Z,96.40
2023-04-16T03:28:28.266Z,96.20
2023-04-16T03:30:55.288Z,96.10
2023-04-16T03:33:22.948Z,96.10
2023-04-16T03:35:57.856Z,96.20
2023-04-16T03:38:26.860Z,96.30
2023-04-16T03:40:56.275Z,96.20
2023-04-16T03:43:23.298Z,96.20
2023-04-16T03:45:50.914Z,96.20
2023-04-16T03:48:20.962Z,96.50
2023-04-16T03:50:48.360Z,96.50
2023-04-16T03:53:16.961Z,96.60
2023-04-16T03:55:43.912Z,96.60
2023-04-16T03:58:10.988Z,96.40
2023-04-16T04:00:38.007Z,96.50
2023-04-16T04:03:11.504Z,96.50
2023-04-16T04:05:42.281Z,96.70
2023-04-16T04:08:11.410Z,96.70
2023-04-16T04:10:38.512Z,96.70
2023-04-16T04:13:07.139Z,96.80
2023-04-16T04:15:34.941Z,96.80
2023-04-16T04:18:01.995Z,96.80
2023-04-16T04:20:29.026Z,96.90
2023-04-16T04:22:56.103Z,96.60
2023-04-16T04:25:25.548Z,96.70
2023-04-16T04:27:52.651Z,96.60
2023-04-16T04:30:19.564Z,96.70
2023-04-16T04:32:46.601Z,96.70
2023-04-16T04:35:16.003Z,96.50
2023-04-16T04:37:42.945Z,96.70
2023-04-16T04:40:14.865Z,96.60
2023-04-16T04:42:42.089Z,96.70
2023-04-16T04:45:10.182Z,96.80
2023-04-16T04:47:37.217Z,96.70
2023-04-16T04:50:04.278Z,96.90
2023-04-16T04:52:32.959Z,96.80
2023-04-16T04:55:01.863Z,96.70
2023-04-16T04:57:30.265Z,96.70
2023-04-16T04:59:57.173Z,96.80
2023-04-16T05:02:24.240Z,96.70
2023-04-16T05:04:51.294Z,96.90
2023-04-16T05:07:18.193Z,96.80
2023-04-16T05:09:45.071Z,97.00
2023-04-16T05:12:12.023Z,97.00
2023-04-16T05:14:38.897Z,96.90
2023-04-16T05:17:06.195Z,96.90
2023-04-16T05:19:33.073Z,96.80
2023-04-16T05:22:00.032Z,96.80
2023-04-16T05:24:26.940Z,96.80
2023-04-16T05:26:53.823Z,96.80
2023-04-16T05:29:20.759Z,97.20
2023-04-16T05:31:47.630Z,97.00
2023-04-16T05:34:14.506Z,97.00
2023-04-16T05:36:41.396Z,96.90
2023-04-16T05:39:08.883Z,96.90
2023-04-16T05:41:35.962Z,97.10
2023-04-16T05:44:02.873Z,96.90
2023-04-16T05:46:29.894Z,96.90
2023-04-16T05:48:56.780Z,96.80
2023-04-16T05:51:25.668Z,96.90
2023-04-16T05:53:52.548Z,97.00
2023-04-16T05:56:19.527Z,97.00
2023-04-16T05:58:46.365Z,97.10
2023-04-16T06:01:13.256Z,97.10
2023-04-16T06:03:40.297Z,97.10
2023-04-16T06:06:09.029Z,97.10
2023-04-16T06:08:35.979Z,97.10
2023-04-16T06:11:03.453Z,96.90
2023-04-16T06:13:30.386Z,96.80
2023-04-16T06:15:57.309Z,96.90
2023-04-16T06:18:24.191Z,97.00
2023-04-16T06:20:51.067Z,97.00
2023-04-16T06:23:17.965Z,96.90
2023-04-16T06:25:44.924Z,96.90
2023-04-16T06:28:11.823Z,96.90
2023-04-16T06:30:39.326Z,96.90
2023-04-16T06:33:06.267Z,96.70
2023-04-16T06:35:33.142Z,97.10
2023-04-16T06:38:00.135Z,97.00
2023-04-16T06:40:27.090Z,96.90
2023-04-16T06:42:54.078Z,96.80
2023-04-16T06:45:21.032Z,96.70
2023-04-16T06:47:48.302Z,96.60
2023-04-16T06:50:15.601Z,96.50
2023-04-16T06:52:42.538Z,96.30
2023-04-16T06:55:10.054Z,96.30
2023-04-16T06:57:37.666Z,95.90
2023-04-16T07:00:07.740Z,95.60
2023-04-16T07:02:35.083Z,95.10
2023-04-16T07:05:02.311Z,95.00
2023-04-16T07:07:29.244Z,94.30
2023-04-16T07:09:56.116Z,94.40
2023-04-16T07:12:23.118Z,93.50
2023-04-16T07:14:50.093Z,93.60
2023-04-16T07:17:17.006Z,93.00
2023-04-16T07:19:44.301Z,90.90
2023-04-16T07:22:11.185Z,91.40
2023-04-16T07:24:38.043Z,90.60
2023-04-16T07:27:05.161Z,89.70
2023-04-16T07:29:32.140Z,89.30
2023-04-16T07:31:59.129Z,90.00
2023-04-16T07:34:26.175Z,86.30
2023-04-16T07:36:53.067Z,85.40
2023-04-16T07:39:19.898Z,84.90
2023-04-16T07:41:46.884Z,82.20
2023-04-16T07:44:13.900Z,80.50
2023-04-16T07:46:46.768Z,81.70
2023-04-16T07:49:14.160Z,79.40
2023-04-16T07:51:41.256Z,75.00
2023-04-16T07:54:08.217Z,71.00
2023-04-16T07:56:35.076Z,70.10
2023-04-16T07:59:14.369Z,65.30
2023-04-16T08:01:48.544Z,59.40
2023-04-16T08:04:17.590Z,55.80
2023-04-16T08:06:44.554Z,36.60
2023-04-16T08:09:11.673Z,39.60
2023-04-16T08:11:38.751Z,34.00
2023-04-16T08:14:05.724Z,32.20
2023-04-16T08:16:32.682Z,23.00
2023-04-16T08:19:01.242Z,17.00
2023-04-16T08:21:28.356Z,21.80
2023-04-16T08:23:55.221Z,19.70
2023-04-16T08:26:22.126Z,31.20
2023-04-16T08:28:48.979Z,20.00
2023-04-16T08:31:16.021Z,19.40
2023-04-16T08:33:43.535Z,21.50
2023-04-16T08:36:10.474Z,21.00
2023-04-16T08:38:37.398Z,17.40
2023-04-16T08:41:05.988Z,18.90
2023-04-16T08:43:37.262Z,16.20
2023-04-16T08:46:05.146Z,10.50
2023-04-16T08:48:32.932Z,10.60
2023-04-16T08:51:00.197Z,8.70
2023-04-16T08:53:33.354Z,9.10
2023-04-16T08:56:00.570Z,7.00
2023-04-16T08:58:28.536Z,10.10
2023-04-16T09:00:55.412Z,6.50
2023-04-16T09:03:22.503Z,8.50
2023-04-16T09:05:49.599Z,7.50
2023-04-16T09:08:16.774Z,8.10
2023-04-16T09:10:43.759Z,5.10
2023-04-16T09:13:11.845Z,7.90
2023-04-16T09:15:38.817Z,7.90
2023-04-16T09:18:05.908Z,3.80
2023-04-16T09:20:32.833Z,8.20
2023-04-16T09:22:59.839Z,9.30
2023-04-16T09:25:26.741Z,6.10
2023-04-16T09:27:53.759Z,5.70
2023-04-16T09:30:24.209Z,6.40
2023-04-16T09:32:51.900Z,8.60
2023-04-16T09:35:22.007Z,5.80
2023-04-16T09:37:55.604Z,3.00
2023-04-16T09:40:26.784Z,2.40
2023-04-16T09:42:56.761Z,3.20
2023-04-16T09:45:23.651Z,4.20
2023-04-16T09:47:50.637Z,7.60
2023-04-16T09:50:18.902Z,3.00
2023-04-16T09:52:48.036Z,6.90
2023-04-16T09:55:14.936Z,4.40
2023-04-16T09:57:41.792Z,3.90
2023-04-16T10:00:09.549Z,4.60
2023-04-16T10:02:39.474Z,4.50
2023-04-16T10:05:06.822Z,3.80
2023-04-16T10:07:34.219Z,4.00
2023-04-16T10:10:01.153Z,3.10
2023-04-16T10:12:28.949Z,5.80
2023-04-16T10:14:55.844Z,4.40
2023-04-16T10:17:24.081Z,4.30
2023-04-16T10:19:51.072Z,5.90
2023-04-16T10:22:18.011Z,5.70
2023-04-16T10:24:44.906Z,5.40
2023-04-16T10:27:12.469Z,3.50
2023-04-16T10:29:39.358Z,6.20
2023-04-16T10:32:06.234Z,3.20
2023-04-16T10:34:33.193Z,2.10
2023-04-16T10:37:00.136Z,3.30
2023-04-16T10:39:27.948Z,1.80
2023-04-16T10:42:08.086Z,1.00
2023-04-16T10:44:34.986Z,1.80
2023-04-16T10:47:01.825Z,1.60
2023-04-16T10:49:28.814Z,2.20
2023-04-16T10:51:56.426Z,2.60
2023-04-16T10:54:32.564Z,2.30
2023-04-16T10:57:01.632Z,4.00
2023-04-16T10:59:35.217Z,1.00
2023-04-16T11:02:03.345Z,2.20
2023-04-16T11:04:33.717Z,1.00
2023-04-16T11:07:04.147Z,2.70
2023-04-16T11:09:49.933Z,1.70
2023-04-16T11:12:18.733Z,1.70
2023-04-16T11:14:49.578Z,1.00
2023-04-16T11:17:16.769Z,1.80
2023-04-16T11:19:43.855Z,1.00
2023-04-16T11:22:12.544Z,1.00
2023-04-16T11:24:41.088Z,1.00
2023-04-16T11:27:08.206Z,1.10
2023-04-16T11:29:35.116Z,1.00
2023-04-16T11:32:02.063Z,1.00
2023-04-16T11:34:29.378Z,1.00
2023-04-16T11:36:56.289Z,1.00
2023-04-16T11:39:23.235Z,1.00
2023-04-16T11:41:50.708Z,1.00
2023-04-16T11:44:17.675Z,1.00
2023-04-16T11:46:44.620Z,1.00
2023-04-16T11:49:11.778Z,1.00
2023-04-16T11:51:42.263Z,1.00
2023-04-16T11:54:11.659Z,1.00
2023-04-16T11:56:39.032Z,1.00
2023-04-16T11:59:09.794Z,1.00
2023-04-16T12:01:37.168Z,1.00
2023-04-16T12:04:04.506Z,1.00
2023-04-16T12:06:34.691Z,1.00
2023-04-16T12:09:21.673Z,1.00
2023-04-16T12:11:48.538Z,1.00
2023-04-16T12:14:15.495Z,1.00
2023-04-16T12:16:42.478Z,1.00
2023-04-16T12:19:11.089Z,1.00
2023-04-16T12:21:41.834Z,1.00
2023-04-16T12:24:09.129Z,1.00
2023-04-16T12:26:36.715Z,1.00
2023-04-16T12:29:22.531Z,1.00
2023-04-16T12:31:50.040Z,1.00
2023-04-16T12:34:17.514Z,1.00
2023-04-16T12:36:44.680Z,1.00
2023-04-16T12:39:11.900Z,1.00
2023-04-16T12:41:39.316Z,1.00
2023-04-16T12:44:07.586Z,1.00
2023-04-16T12:46:34.684Z,1.00
2023-04-16T12:49:01.643Z,1.00
2023-04-16T12:51:28.621Z,1.00
2023-04-16T12:53:55.527Z,1.00
2023-04-16T12:56:22.574Z,1.00
2023-04-16T12:58:51.892Z,1.00
2023-04-16T13:01:21.847Z,1.00
2023-04-16T13:03:48.977Z,1.00
2023-04-16T13:06:16.492Z,1.00
2023-04-16T13:08:43.556Z,1.00
2023-04-16T13:11:10.762Z,1.00
2023-04-16T13:13:37.650Z,1.00
2023-04-16T13:16:06.855Z,1.00
2023-04-16T13:18:33.898Z,1.00
2023-04-16T13:21:00.917Z,1.00
2023-04-16T13:23:27.800Z,1.00
2023-04-16T13:25:54.913Z,1.00
2023-04-16T13:28:22.087Z,1.00
2023-04-16T13:30:49.179Z,1.00
2023-04-16T13:33:16.555Z,1.00
2023-04-16T13:35:43.447Z,1.00
2023-04-16T13:38:10.546Z,1.00
2023-04-16T13:40:37.506Z,1.00
2023-04-16T13:43:05.934Z,1.00
2023-04-16T13:45:34.182Z,1.00
2023-04-16T13:48:01.514Z,1.00
2023-04-16T13:50:28.421Z,1.00
2023-04-16T13:52:55.429Z,1.00
2023-04-16T13:55:22.424Z,1.00
2023-04-16T13:57:49.866Z,1.00
2023-04-16T14:00:17.009Z,1.00
2023-04-16T14:02:46.135Z,1.00
2023-04-16T14:05:13.261Z,1.00
2023-04-16T14:07:40.199Z,1.00
2023-04-16T14:10:07.433Z,1.00
2023-04-16T14:12:34.399Z,1.00
2023-04-16T14:15:03.716Z,1.00
2023-04-16T14:17:30.623Z,1.00
2023-04-16T14:19:57.568Z,1.00
2023-04-16T14:22:24.493Z,1.00
2023-04-16T14:24:51.456Z,1.00
2023-04-16T14:27:18.354Z,1.00
2023-04-16T14:29:46.632Z,1.00
2023-04-16T14:32:13.607Z,1.00
2023-04-16T14:34:40.693Z,1.00
2023-04-16T14:37:08.225Z,1.00
2023-04-16T14:39:36.501Z,1.00
2023-04-16T14:42:03.462Z,1.00
2023-04-16T14:44:30.415Z,1.00
2023-04-16T14:46:57.301Z,1.00
2023-04-16T14:49:24.266Z,1.00
2023-04-16T14:51:52.487Z,1.00
2023-04-16T14:54:19.792Z,1.00
2023-04-16T14:56:47.582Z,1.00
2023-04-16T14:59:14.416Z,1.00
2023-04-16T15:01:42.166Z,1.00
2023-04-16T15:04:09.267Z,1.00
2023-04-16T15:06:36.742Z,1.00
2023-04-16T15:09:04.220Z,1.00
2023-04-16T15:11:31.171Z,1.00
2023-04-16T15:13:58.152Z,1.00
2023-04-16T15:16:25.163Z,1.00
2023-04-16T15:18:52.116Z,1.00
2023-04-16T15:21:19.002Z,1.00
2023-04-16T15:23:45.892Z,1.00
2023-04-16T15:26:12.951Z,1.00
2023-04-16T15:28:40.173Z,1.00
2023-04-16T15:31:07.216Z,1.00
2023-04-16T15:33:34.152Z,1.00
2023-04-16T15:36:01.023Z,1.00
2023-04-16T15:38:29.965Z,1.00
2023-04-16T15:41:00.867Z,1.00
2023-04-16T15:43:28.956Z,1.00
2023-04-16T15:45:56.578Z,1.00
2023-04-16T15:48:23.774Z,1.00
2023-04-16T15:50:50.988Z,1.00
2023-04-16T15:53:17.865Z,1.00
2023-04-16T15:55:44.804Z,1.00
2023-04-16T15:58:13.015Z,1.00
2023-04-16T16:00:39.909Z,1.00
2023-04-16T16:03:06.967Z,1.00
2023-04-16T16:05:33.995Z,1.00
2023-04-16T16:08:01.920Z,1.00
2023-04-16T16:10:28.828Z,1.00
2023-04-16T16:12:57.350Z,1.00
2023-04-16T16:15:24.255Z,1.00
2023-04-16T16:17:52.997Z,1.00
2023-04-16T16:20:19.926Z,1.00
2023-04-16T16:22:48.440Z,1.00
2023-04-16T16:25:15.394Z,1.00
2023-04-16T16:27:42.414Z,1.00
2023-04-16T16:30:09.534Z,1.00
2023-04-16T16:32:37.843Z,1.00
2023-04-16T16:35:04.827Z,1.00
2023-04-16T16:37:31.719Z,1.00
2023-04-16T16:39:58.638Z,1.00
2023-04-16T16:42:26.702Z,1.00
2023-04-16T16:44:54.795Z,1.00
2023-04-16T16:47:24.711Z,1.00
2023-04-16T16:49:51.613Z,1.00
2023-04-16T16:52:18.503Z,1.00
2023-04-16T16:54:45.335Z,1.00
2023-04-16T16:57:12.364Z,1.00
2023-04-16T16:59:39.240Z,1.00
2023-04-16T17:02:06.315Z,1.00
2023-04-16T17:04:33.316Z,1.00
2023-04-16T17:07:00.420Z,1.00
2023-04-16T17:09:27.288Z,1.00
2023-04-16T17:11:54.162Z,1.00
2023-04-16T17:14:21.188Z,1.00
2023-04-16T17:16:49.991Z,1.00
2023-04-16T17:19:18.003Z,1.00
2023-04-16T17:21:44.886Z,1.00
2023-04-16T17:24:11.986Z,1.70
2023-04-16T17:26:41.073Z,1.00
2023-04-16T17:29:07.952Z,1.00
2023-04-16T17:31:34.865Z,1.20
2023-04-16T17:34:05.022Z,1.80
2023-04-16T17:36:32.376Z,2.40
2023-04-16T17:38:59.532Z,2.00
2023-04-16T17:41:26.460Z,1.60
2023-04-16T17:43:53.446Z,1.00
2023-04-16T17:46:20.399Z,1.50
2023-04-16T17:48:49.001Z,4.00
2023-04-16T17:51:16.743Z,2.20
2023-04-16T17:53:43.761Z,3.10
2023-04-16T17:56:11.027Z,2.70
2023-04-16T17:58:37.948Z,4.30
2023-04-16T18:01:05.403Z,4.20
2023-04-16T18:03:32.757Z,3.50
2023-04-16T18:05:59.982Z,2.50
2023-04-16T18:08:26.931Z,1.60
2023-04-16T18:10:55.247Z,3.00
2023-04-16T18:13:22.135Z,2.60
2023-04-16T18:15:49.032Z,3.20
2023-04-16T18:18:15.979Z,4.50
2023-04-16T18:20:42.859Z,3.00
2023-04-16T18:23:09.802Z,5.10
2023-04-16T18:25:36.699Z,4.20
2023-04-16T18:28:05.245Z,3.50
2023-04-16T18:30:32.285Z,3.60
2023-04-16T18:35:29.006Z,6.40
2023-04-16T18:37:55.879Z,7.30
2023-04-16T18:40:22.799Z,4.40
2023-04-16T18:42:49.743Z,6.00
2023-04-16T18:45:21.564Z,6.00
2023-04-16T18:47:50.414Z,6.40
2023-04-16T18:50:17.390Z,8.20
2023-04-16T18:52:44.298Z,6.90
2023-04-16T18:55:11.188Z,8.70
2023-04-16T18:57:38.162Z,7.10
2023-04-16T19:00:11.018Z,9.00
2023-04-16T19:02:38.333Z,7.90
2023-04-16T19:05:05.717Z,10.50
2023-04-16T19:07:32.610Z,10.40
2023-04-16T19:10:00.258Z,9.10
2023-04-16T19:12:27.140Z,8.80
2023-04-16T19:14:54.011Z,9.00
2023-04-16T19:17:21.217Z,10.30
2023-04-16T19:19:48.233Z,8.80
2023-04-16T19:22:15.121Z,10.30
2023-04-16T19:24:42.049Z,9.60
2023-04-16T19:27:08.892Z,8.60
2023-04-16T19:29:35.897Z,10.20
2023-04-16T19:32:02.898Z,10.20
2023-04-16T19:34:30.166Z,10.20
2023-04-16T19:36:57.040Z,10.20
2023-04-16T19:39:27.934Z,9.60
2023-04-16T19:41:54.883Z,10.10
2023-04-16T19:44:23.347Z,10.40
2023-04-16T19:46:50.388Z,10.60
2023-04-16T19:49:17.323Z,10.20
2023-04-16T19:51:44.455Z,10.80
2023-04-16T19:54:11.592Z,11.60
2023-04-16T19:56:38.524Z,11.90
2023-04-16T19:59:05.428Z,13.30
2023-04-16T20:01:32.378Z,12.90
2023-04-16T20:03:59.536Z,13.10
2023-04-16T20:06:26.986Z,12.90
2023-04-16T20:08:54.116Z,15.70
2023-04-16T20:11:21.123Z,15.50
2023-04-16T20:13:48.245Z,16.00
2023-04-16T20:16:15.200Z,16.10
2023-04-16T20:18:42.652Z,17.00
2023-04-16T20:21:09.766Z,17.00
2023-04-16T20:23:36.633Z,16.70
2023-04-16T20:26:04.558Z,17.20
2023-04-16T20:28:31.490Z,16.80
2023-04-16T20:30:58.812Z,17.50
2023-04-16T20:33:25.752Z,17.10
2023-04-16T20:35:52.698Z,17.50
2023-04-16T20:38:24.013Z,18.20
2023-04-16T20:41:06.256Z,18.60
2023-04-16T20:43:38.712Z,18.60
2023-04-16T20:46:06.235Z,18.60
2023-04-16T20:48:33.262Z,18.50
2023-04-16T20:51:03.905Z,19.80
2023-04-16T20:53:31.702Z,20.00
2023-04-16T20:56:00.186Z,20.60
2023-04-16T20:58:27.497Z,20.30
2023-04-16T21:00:54.756Z,20.70
2023-04-16T21:03:22.279Z,21.70
2023-04-16T21:05:53.432Z,21.00
2023-04-16T21:08:20.616Z,20.70
2023-04-16T21:10:47.549Z,21.40
2023-04-16T21:13:14.574Z,21.80
2023-04-16T21:15:42.006Z,22.00
2023-04-16T21:18:09.007Z,22.40
2023-04-16T21:20:36.054Z,22.80
2023-04-16T21:23:03.259Z,23.30
2023-04-16T21:25:30.226Z,22.90
2023-04-16T21:27:57.257Z,23.30
2023-04-16T21:30:24.207Z,23.00
2023-04-16T21:32:51.207Z,23.50
2023-04-16T21:35:18.133Z,23.70
2023-04-16T21:37:44.989Z,23.40
2023-04-16T21:40:11.943Z,21.90
2023-04-16T21:42:40.132Z,24.80
2023-04-16T21:45:07.892Z,25.40
2023-04-16T21:47:34.817Z,25.60
2023-04-16T21:50:01.752Z,26.30
2023-04-16T21:52:28.688Z,27.50
2023-04-16T21:54:55.711Z,26.30
2023-04-16T21:57:22.659Z,26.50
2023-04-16T21:59:49.586Z,26.60
2023-04-16T22:02:16.599Z,27.70
2023-04-16T22:04:43.798Z,27.30
2023-04-16T22:07:11.874Z,28.20
2023-04-16T22:09:38.906Z,28.20
2023-04-16T22:12:12.191Z,29.20
2023-04-16T22:14:43.969Z,29.70
2023-04-16T22:17:17.250Z,29.20
2023-04-16T22:19:44.784Z,30.60
2023-04-16T22:22:11.640Z,29.20
2023-04-16T22:24:38.494Z,29.30
2023-04-16T22:27:05.366Z,30.00
2023-04-16T22:29:32.242Z,31.10
2023-04-16T22:32:00.831Z,31.10
2023-04-16T22:34:27.744Z,30.40
2023-04-16T22:36:54.580Z,30.70
2023-04-16T22:39:21.641Z,30.40
2023-04-16T22:41:48.516Z,31.50
2023-04-16T22:44:15.916Z,32.70
2023-04-16T22:46:42.870Z,33.10
2023-04-16T22:49:09.933Z,33.00
2023-04-16T22:51:38.374Z,33.40
2023-04-16T22:54:05.222Z,31.30
2023-04-16T22:56:32.103Z,32.20
2023-04-16T22:58:59.008Z,33.90
2023-04-16T23:01:25.977Z,32.20
2023-04-16T23:03:53.040Z,34.20
2023-04-16T23:06:19.911Z,33.20
2023-04-16T23:08:46.847Z,31.80
2023-04-16T23:11:13.681Z,31.40
2023-04-16T23:13:40.896Z,33.10
2023-04-16T23:16:07.905Z,33.00
2023-04-16T23:18:34.926Z,33.60
2023-04-16T23:21:01.797Z,32.80
2023-04-16T23:23:28.670Z,33.00
2023-04-16T23:25:55.501Z,33.50
2023-04-16T23:28:22.536Z,33.80
2023-04-16T23:30:53.110Z,32.80
2023-04-16T23:33:20.087Z,33.20
2023-04-16T23:35:47.456Z,33.20
2023-04-16T23:38:14.382Z,34.70
2023-04-16T23:40:41.364Z,34.50
2023-04-16T23:43:08.241Z,34.80
2023-04-16T23:45:35.199Z,35.30
2023-04-16T23:48:02.169Z,35.70
2023-04-16T23:50:29.074Z,37.00
2023-04-16T23:52:56.108Z,36.40
2023-04-16T23:55:23.034Z,35.10
2023-04-16T23:57:49.937Z,36.80
